sensor_id;sensor_type;location;lat;lon;timestamp;pressure;altitude;pressure_sealevel;temperature;humidity
52535;BME280;38443;53.164;5.802;2023-03-14T00:00:55;98725.69;;;7.90;100.00
52535;BME280;38443;53.164;5.802;2023-03-14T00:03:21;98725.69;;;7.90;100.00
52535;BME280;38443;53.164;5.802;2023-03-14T00:05:46;98728.09;;;7.94;100.00
52535;BME280;38443;53.164;5.802;2023-03-14T00:08:12;98721.72;;;7.97;100.00
52535;BME280;38443;53.164;5.802;2023-03-14T00:10:37;98732.38;;;7.97;100.00
52535;BME280;38443;53.164;5.802;2023-03-14T00:13:04;98723.78;;;7.92;100.00
52535;BME280;38443;53.164;5.802;2023-03-14T00:15:29;98729.25;;;7.89;100.00
52535;BME280;38443;53.164;5.802;2023-03-14T00:17:54;98722.63;;;7.80;100.00
52535;BME280;38443;53.164;5.802;2023-03-14T00:20:19;98729.06;;;7.76;100.00
52535;BME280;38443;53.164;5.802;2023-03-14T00:22:45;98734.78;;;7.68;100.00
52535;BME280;38443;53.164;5.802;2023-03-14T00:25:11;98721.84;;;7.61;100.00
52535;BME280;38443;53.164;5.802;2023-03-14T00:27:37;98721.31;;;7.54;100.00
52535;BME280;38443;53.164;5.802;2023-03-14T00:30:03;98718.25;;;7.44;100.00
52535;BME280;38443;53.164;5.802;2023-03-14T00:32:29;98714.94;;;7.39;100.00
52535;BME280;38443;53.164;5.802;2023-03-14T00:34:54;98726.69;;;7.35;100.00
52535;BME280;38443;53.164;5.802;2023-03-14T00:37:19;98717.91;;;7.33;100.00
52535;BME280;38443;53.164;5.802;2023-03-14T00:39:45;98705.78;;;7.27;100.00
52535;BME280;38443;53.164;5.802;2023-03-14T00:42:10;98708.69;;;7.23;100.00
52535;BME280;38443;53.164;5.802;2023-03-14T00:44:36;98710.63;;;7.19;100.00
52535;BME280;38443;53.164;5.802;2023-03-14T00:47:01;98713.47;;;7.16;100.00
52535;BME280;38443;53.164;5.802;2023-03-14T00:49:26;98713.47;;;7.16;100.00
52535;BME280;38443;53.164;5.802;2023-03-14T00:51:51;98716.19;;;7.14;100.00
52535;BME280;38443;53.164;5.802;2023-03-14T00:54:17;98719.78;;;7.13;100.00
52535;BME280;38443;53.164;5.802;2023-03-14T00:56:43;98725.09;;;7.13;100.00
52535;BME280;38443;53.164;5.802;2023-03-14T00:59:08;98724.09;;;7.16;100.00
52535;BME280;38443;53.164;5.802;2023-03-14T01:01:33;98721.91;;;7.24;100.00
52535;BME280;38443;53.164;5.802;2023-03-14T01:03:58;98717.06;;;7.32;100.00
52535;BME280;38443;53.164;5.802;2023-03-14T01:06:26;98720.44;;;7.36;100.00
52535;BME280;38443;53.164;5.802;2023-03-14T01:08:52;98707.94;;;7.38;100.00
52535;BME280;38443;53.164;5.802;2023-03-14T01:11:23;98708.47;;;7.45;100.00
52535;BME280;38443;53.164;5.802;2023-03-14T01:13:49;98703.84;;;7.48;100.00
52535;BME280;38443;53.164;5.802;2023-03-14T01:16:14;98704.47;;;7.53;100.00
52535;BME280;38443;53.164;5.802;2023-03-14T01:18:41;98715.03;;;7.55;100.00
52535;BME280;38443;53.164;5.802;2023-03-14T01:21:25;98711.34;;;7.57;100.00
52535;BME280;38443;53.164;5.802;2023-03-14T01:23:52;98720.03;;;7.61;100.00
52535;BME280;38443;53.164;5.802;2023-03-14T01:26:20;98717.22;;;7.64;100.00
52535;BME280;38443;53.164;5.802;2023-03-14T01:28:47;98722.38;;;7.67;100.00
52535;BME280;38443;53.164;5.802;2023-03-14T01:31:13;98721.47;;;7.68;100.00
52535;BME280;38443;53.164;5.802;2023-03-14T01:33:38;98723.28;;;7.68;100.00
52535;BME280;38443;53.164;5.802;2023-03-14T01:36:04;98724.91;;;7.70;100.00
52535;BME280;38443;53.164;5.802;2023-03-14T01:38:31;98713.41;;;7.70;100.00
52535;BME280;38443;53.164;5.802;2023-03-14T01:40:58;98709.13;;;7.66;100.00
52535;BME280;38443;53.164;5.802;2023-03-14T01:43:23;98709.31;;;7.63;100.00
52535;BME280;38443;53.164;5.802;2023-03-14T01:48:40;98708.00;;;7.54;100.00
52535;BME280;38443;53.164;5.802;2023-03-14T01:51:11;98706.44;;;7.50;100.00
52535;BME280;38443;53.164;5.802;2023-03-14T01:53:39;98693.28;;;7.47;100.00
52535;BME280;38443;53.164;5.802;2023-03-14T01:56:07;98691.56;;;7.46;100.00
52535;BME280;38443;53.164;5.802;2023-03-14T01:58:32;98689.84;;;7.45;100.00
52535;BME280;38443;53.164;5.802;2023-03-14T02:01:01;98695.22;;;7.43;100.00
52535;BME280;38443;53.164;5.802;2023-03-14T02:03:29;98696.25;;;7.41;100.00
52535;BME280;38443;53.164;5.802;2023-03-14T02:05:57;98698.75;;;7.44;100.00
52535;BME280;38443;53.164;5.802;2023-03-14T02:08:27;98683.78;;;7.41;100.00
52535;BME280;38443;53.164;5.802;2023-03-14T02:10:53;98680.28;;;7.41;100.00
52535;BME280;38443;53.164;5.802;2023-03-14T02:13:19;98690.22;;;7.37;100.00
52535;BME280;38443;53.164;5.802;2023-03-14T02:15:45;98692.09;;;7.35;100.00
52535;BME280;38443;53.164;5.802;2023-03-14T02:18:11;98693.13;;;7.32;100.00
52535;BME280;38443;53.164;5.802;2023-03-14T02:23:34;98681.84;;;7.27;100.00
52535;BME280;38443;53.164;5.802;2023-03-14T02:26:07;98678.31;;;7.27;100.00
52535;BME280;38443;53.164;5.802;2023-03-14T02:28:34;98679.19;;;7.27;100.00
52535;BME280;38443;53.164;5.802;2023-03-14T02:30:59;98673.00;;;7.27;100.00
52535;BME280;38443;53.164;5.802;2023-03-14T02:33:24;98680.84;;;7.30;100.00
52535;BME280;38443;53.164;5.802;2023-03-14T02:35:55;98679.97;;;7.29;100.00
52535;BME280;38443;53.164;5.802;2023-03-14T02:41:22;98687.09;;;7.29;100.00
52535;BME280;38443;53.164;5.802;2023-03-14T02:43:47;98672.06;;;7.28;100.00
52535;BME280;38443;53.164;5.802;2023-03-14T02:46:16;98675.66;;;7.27;100.00
52535;BME280;38443;53.164;5.802;2023-03-14T02:48:48;98679.41;;;7.23;100.00
52535;BME280;38443;53.164;5.802;2023-03-14T02:51:16;98678.69;;;7.19;100.00
52535;BME280;38443;53.164;5.802;2023-03-14T02:53:42;98681.59;;;7.14;100.00
52535;BME280;38443;53.164;5.802;2023-03-14T02:56:09;98679.09;;;7.11;100.00
52535;BME280;38443;53.164;5.802;2023-03-14T02:58:35;98679.09;;;7.11;100.00
52535;BME280;38443;53.164;5.802;2023-03-14T03:01:01;98688.88;;;7.11;100.00
52535;BME280;38443;53.164;5.802;2023-03-14T03:03:26;98689.72;;;7.11;100.00
52535;BME280;38443;53.164;5.802;2023-03-14T03:05:53;98677.53;;;7.07;100.00
52535;BME280;38443;53.164;5.802;2023-03-14T03:08:20;98682.06;;;7.05;100.00
52535;BME280;38443;53.164;5.802;2023-03-14T03:10:46;98671.59;;;7.02;100.00
52535;BME280;38443;53.164;5.802;2023-03-14T03:13:11;98678.59;;;7.03;100.00
52535;BME280;38443;53.164;5.802;2023-03-14T03:15:36;98669.91;;;6.99;100.00
52535;BME280;38443;53.164;5.802;2023-03-14T03:18:02;98676.97;;;7.01;100.00
52535;BME280;38443;53.164;5.802;2023-03-14T03:20:27;98675.22;;;6.99;100.00
52535;BME280;38443;53.164;5.802;2023-03-14T03:22:52;98668.06;;;7.02;100.00
52535;BME280;38443;53.164;5.802;2023-03-14T03:25:18;98669.84;;;7.01;100.00
52535;BME280;38443;53.164;5.802;2023-03-14T03:27:43;98668.13;;;7.00;100.00
52535;BME280;38443;53.164;5.802;2023-03-14T03:30:09;98673.53;;;6.98;100.00
52535;BME280;38443;53.164;5.802;2023-03-14T03:32:34;98674.25;;;7.02;100.00
52535;BME280;38443;53.164;5.802;2023-03-14T03:35:00;98660.16;;;7.00;100.00
52535;BME280;38443;53.164;5.802;2023-03-14T03:37:25;98675.16;;;7.01;100.00
52535;BME280;38443;53.164;5.802;2023-03-14T03:39:50;98678.78;;;7.00;100.00
52535;BME280;38443;53.164;5.802;2023-03-14T03:42:17;98669.84;;;7.01;100.00
52535;BME280;38443;53.164;5.802;2023-03-14T03:44:42;98660.16;;;7.00;100.00
52535;BME280;38443;53.164;5.802;2023-03-14T03:47:07;98672.50;;;7.01;100.00
52535;BME280;38443;53.164;5.802;2023-03-14T03:49:33;98668.22;;;6.98;100.00
52535;BME280;38443;53.164;5.802;2023-03-14T03:51:58;98671.72;;;6.99;100.00
52535;BME280;38443;53.164;5.802;2023-03-14T03:54:24;98670.88;;;6.98;100.00
52535;BME280;38443;53.164;5.802;2023-03-14T03:56:49;98668.28;;;6.97;100.00
52535;BME280;38443;53.164;5.802;2023-03-14T03:59:15;98683.31;;;6.98;100.00
52535;BME280;38443;53.164;5.802;2023-03-14T04:01:41;98670.94;;;6.97;100.00
52535;BME280;38443;53.164;5.802;2023-03-14T04:04:06;98681.50;;;6.98;100.00
52535;BME280;38443;53.164;5.802;2023-03-14T04:06:31;98670.94;;;6.97;100.00
52535;BME280;38443;53.164;5.802;2023-03-14T04:08:57;98676.19;;;6.98;100.00
52535;BME280;38443;53.164;5.802;2023-03-14T04:11:22;98679.69;;;6.99;100.00
52535;BME280;38443;53.164;5.802;2023-03-14T04:13:47;98674.38;;;6.99;100.00
52535;BME280;38443;53.164;5.802;2023-03-14T04:16:14;98678.84;;;6.98;100.00
52535;BME280;38443;53.164;5.802;2023-03-14T04:18:40;98681.50;;;6.98;100.00
52535;BME280;38443;53.164;5.802;2023-03-14T04:21:05;98673.53;;;6.98;100.00
52535;BME280;38443;53.164;5.802;2023-03-14T04:23:31;98677.09;;;6.97;100.00
52535;BME280;38443;53.164;5.802;2023-03-14T04:25:56;98685.09;;;6.97;100.00
52535;BME280;38443;53.164;5.802;2023-03-14T04:28:21;98687.19;;;6.91;100.00
52535;BME280;38443;53.164;5.802;2023-03-14T04:30:46;98680.31;;;6.87;100.00
52535;BME280;38443;53.164;5.802;2023-03-14T04:33:12;98693.00;;;6.82;100.00
52535;BME280;38443;53.164;5.802;2023-03-14T04:35:42;98692.25;;;6.78;100.00
52535;BME280;38443;53.164;5.802;2023-03-14T04:38:07;98680.75;;;6.77;100.00
52535;BME280;38443;53.164;5.802;2023-03-14T04:40:32;98692.56;;;6.72;100.00
52535;BME280;38443;53.164;5.802;2023-03-14T04:42:57;98696.00;;;6.74;100.00
52535;BME280;38443;53.164;5.802;2023-03-14T04:45:23;98685.50;;;6.71;100.00
52535;BME280;38443;53.164;5.802;2023-03-14T04:47:48;98680.19;;;6.71;100.00
52535;BME280;38443;53.164;5.802;2023-03-14T04:50:13;98679.34;;;6.70;100.00
52535;BME280;38443;53.164;5.802;2023-03-14T04:52:38;98686.28;;;6.73;100.00
52535;BME280;38443;53.164;5.802;2023-03-14T04:55:04;98689.13;;;6.70;100.00
52535;BME280;38443;53.164;5.802;2023-03-14T04:57:29;98686.28;;;6.73;100.00
52535;BME280;38443;53.164;5.802;2023-03-14T04:59:55;98690.81;;;6.71;100.00
52535;BME280;38443;53.164;5.802;2023-03-14T05:02:20;98681.84;;;6.73;100.00
52535;BME280;38443;53.164;5.802;2023-03-14T05:04:45;98690.81;;;6.71;100.00
52535;BME280;38443;53.164;5.802;2023-03-14T05:07:10;98672.88;;;6.76;100.00
52535;BME280;38443;53.164;5.802;2023-03-14T05:09:36;98692.41;;;6.75;100.00
52535;BME280;38443;53.164;5.802;2023-03-14T05:12:01;98691.38;;;6.77;100.00
52535;BME280;38443;53.164;5.802;2023-03-14T05:14:27;98692.41;;;6.75;100.00
52535;BME280;38443;53.164;5.802;2023-03-14T05:16:52;98694.13;;;6.76;100.00
52535;BME280;38443;53.164;5.802;2023-03-14T05:19:17;98694.03;;;6.77;100.00
52535;BME280;38443;53.164;5.802;2023-03-14T05:21:42;98697.72;;;6.75;100.00
52535;BME280;38443;53.164;5.802;2023-03-14T05:24:07;98697.72;;;6.75;100.00
52535;BME280;38443;53.164;5.802;2023-03-14T05:26:33;98688.16;;;6.71;100.00
52535;BME280;38443;53.164;5.802;2023-03-14T05:28:58;98690.81;;;6.71;100.00
52535;BME280;38443;53.164;5.802;2023-03-14T05:31:23;98697.22;;;6.67;100.00
52535;BME280;38443;53.164;5.802;2023-03-14T05:33:48;98693.56;;;6.69;100.00
52535;BME280;38443;53.164;5.802;2023-03-14T05:36:14;98694.63;;;6.65;100.00
52535;BME280;38443;53.164;5.802;2023-03-14T05:38:39;98702.59;;;6.65;100.00
52535;BME280;38443;53.164;5.802;2023-03-14T05:41:04;98714.19;;;6.64;100.00
52535;BME280;38443;53.164;5.802;2023-03-14T05:43:30;98734.50;;;6.65;100.00
52535;BME280;38443;53.164;5.802;2023-03-14T05:45:55;98727.72;;;6.59;100.00
52535;BME280;38443;53.164;5.802;2023-03-14T05:48:20;98743.66;;;6.59;100.00
52535;BME280;38443;53.164;5.802;2023-03-14T05:50:46;98754.34;;;6.39;100.00
52535;BME280;38443;53.164;5.802;2023-03-14T05:53:11;98761.91;;;6.09;100.00
52535;BME280;38443;53.164;5.802;2023-03-14T05:55:37;98764.50;;;5.90;100.00
52535;BME280;38443;53.164;5.802;2023-03-14T05:58:02;98777.69;;;5.71;100.00
52535;BME280;38443;53.164;5.802;2023-03-14T06:00:27;98787.97;;;5.58;100.00
52535;BME280;38443;53.164;5.802;2023-03-14T06:02:53;98794.41;;;5.30;100.00
52535;BME280;38443;53.164;5.802;2023-03-14T06:05:18;98817.56;;;5.03;100.00
52535;BME280;38443;53.164;5.802;2023-03-14T06:07:43;98819.19;;;4.85;100.00
52535;BME280;38443;53.164;5.802;2023-03-14T06:10:09;98830.38;;;4.70;100.00
52535;BME280;38443;53.164;5.802;2023-03-14T06:12:34;98846.88;;;4.53;100.00
52535;BME280;38443;53.164;5.802;2023-03-14T06:15:00;98849.94;;;4.42;100.00
52535;BME280;38443;53.164;5.802;2023-03-14T06:17:25;98855.44;;;4.11;100.00
52535;BME280;38443;53.164;5.802;2023-03-14T06:19:50;98869.38;;;3.91;100.00
52535;BME280;38443;53.164;5.802;2023-03-14T06:22:16;98858.81;;;3.64;100.00
52535;BME280;38443;53.164;5.802;2023-03-14T06:24:41;98889.78;;;3.60;100.00
52535;BME280;38443;53.164;5.802;2023-03-14T06:27:06;98900.69;;;3.51;100.00
52535;BME280;38443;53.164;5.802;2023-03-14T06:29:32;98928.16;;;3.47;100.00
52535;BME280;38443;53.164;5.802;2023-03-14T06:31:57;98917.38;;;3.25;100.00
52535;BME280;38443;53.164;5.802;2023-03-14T06:34:22;98924.72;;;3.15;100.00
52535;BME280;38443;53.164;5.802;2023-03-14T06:36:47;98936.31;;;3.10;100.00
52535;BME280;38443;53.164;5.802;2023-03-14T06:39:13;98947.06;;;3.04;100.00
52535;BME280;38443;53.164;5.802;2023-03-14T06:41:38;98957.78;;;2.99;100.00
52535;BME280;38443;53.164;5.802;2023-03-14T06:44:04;98966.75;;;2.93;100.00
52535;BME280;38443;53.164;5.802;2023-03-14T06:46:29;98973.13;;;2.86;100.00
52535;BME280;38443;53.164;5.802;2023-03-14T06:48:54;98998.69;;;2.86;100.00
52535;BME280;38443;53.164;5.802;2023-03-14T06:51:19;98983.81;;;2.82;100.00
52535;BME280;38443;53.164;5.802;2023-03-14T06:53:45;99006.66;;;2.83;100.00
52535;BME280;38443;53.164;5.802;2023-03-14T06:56:10;99014.59;;;2.83;100.00
52535;BME280;38443;53.164;5.802;2023-03-14T06:58:35;99029.41;;;2.88;100.00
52535;BME280;38443;53.164;5.802;2023-03-14T07:01:01;99044.28;;;2.92;100.00
52535;BME280;38443;53.164;5.802;2023-03-14T07:03:26;99062.06;;;2.87;100.00
52535;BME280;38443;53.164;5.802;2023-03-14T07:05:52;99064.72;;;2.86;100.00
52535;BME280;38443;53.164;5.802;2023-03-14T07:08:17;99093.00;;;2.82;100.00
52535;BME280;38443;53.164;5.802;2023-03-14T07:10:43;99087.00;;;2.77;100.00
52535;BME280;38443;53.164;5.802;2023-03-14T07:13:08;99089.56;;;2.78;100.00
52535;BME280;38443;53.164;5.802;2023-03-14T07:15:33;99097.59;;;2.75;100.00
52535;BME280;38443;53.164;5.802;2023-03-14T07:17:59;99123.00;;;2.79;100.00
52535;BME280;38443;53.164;5.802;2023-03-14T07:20:24;99123.88;;;2.80;100.00
52535;BME280;38443;53.164;5.802;2023-03-14T07:22:49;99144.81;;;2.88;100.00
52535;BME280;38443;53.164;5.802;2023-03-14T07:25:15;99152.75;;;2.88;100.00
52535;BME280;38443;53.164;5.802;2023-03-14T07:27:43;99159.66;;;2.93;100.00
52535;BME280;38443;53.164;5.802;2023-03-14T07:30:09;99161.28;;;2.99;100.00
52535;BME280;38443;53.164;5.802;2023-03-14T07:32:34;99193.75;;;3.03;100.00
52535;BME280;38443;53.164;5.802;2023-03-14T07:35:00;99185.81;;;3.04;100.00
52535;BME280;38443;53.164;5.802;2023-03-14T07:37:25;99199.03;;;3.04;100.00
52535;BME280;38443;53.164;5.802;2023-03-14T07:39:50;99208.66;;;3.07;100.00
52535;BME280;38443;53.164;5.802;2023-03-14T07:42:15;99209.50;;;3.09;100.00
52535;BME280;38443;53.164;5.802;2023-03-14T07:44:41;99223.31;;;3.18;100.00
52535;BME280;38443;53.164;5.802;2023-03-14T07:47:06;99218.00;;;3.20;100.00
52535;BME280;38443;53.164;5.802;2023-03-14T07:49:31;99225.75;;;3.28;100.00
52535;BME280;38443;53.164;5.802;2023-03-14T07:51:56;99237.13;;;3.31;100.00
52535;BME280;38443;53.164;5.802;2023-03-14T07:54:23;99238.56;;;3.43;100.00
52535;BME280;38443;53.164;5.802;2023-03-14T07:56:49;99252.50;;;3.50;100.00
52535;BME280;38443;53.164;5.802;2023-03-14T07:59:15;99260.41;;;3.51;100.00
52535;BME280;38443;53.164;5.802;2023-03-14T08:01:40;99260.25;;;3.57;100.00
52535;BME280;38443;53.164;5.802;2023-03-14T08:04:05;99274.47;;;3.53;100.00
52535;BME280;38443;53.164;5.802;2023-03-14T08:06:31;99276.97;;;3.58;100.00
52535;BME280;38443;53.164;5.802;2023-03-14T08:08:56;99289.41;;;3.54;100.00
52535;BME280;38443;53.164;5.802;2023-03-14T08:11:21;99298.94;;;3.62;100.00
52535;BME280;38443;53.164;5.802;2023-03-14T08:13:46;99299.72;;;3.65;100.00
52535;BME280;38443;53.164;5.802;2023-03-14T08:16:15;99314.69;;;3.66;100.00
52535;BME280;38443;53.164;5.802;2023-03-14T08:18:40;99310.31;;;3.65;100.00
52535;BME280;38443;53.164;5.802;2023-03-14T08:21:05;99335.78;;;3.69;100.00
52535;BME280;38443;53.164;5.802;2023-03-14T08:23:31;99339.91;;;3.79;100.00
52535;BME280;38443;53.164;5.802;2023-03-14T08:25:56;99344.97;;;3.89;100.00
52535;BME280;38443;53.164;5.802;2023-03-14T08:28:21;99356.72;;;4.11;100.00
52535;BME280;38443;53.164;5.802;2023-03-14T08:30:47;99355.56;;;4.22;100.00
52535;BME280;38443;53.164;5.802;2023-03-14T08:33:12;99341.06;;;4.35;100.00
52535;BME280;38443;53.164;5.802;2023-03-14T08:35:38;99358.22;;;4.53;100.00
52535;BME280;38443;53.164;5.802;2023-03-14T08:38:03;99363.50;;;4.84;100.00
52535;BME280;38443;53.164;5.802;2023-03-14T08:40:28;99375.75;;;4.88;100.00
52535;BME280;38443;53.164;5.802;2023-03-14T08:42:54;99384.06;;;4.76;100.00
52535;BME280;38443;53.164;5.802;2023-03-14T08:45:19;99374.91;;;4.56;100.00
52535;BME280;38443;53.164;5.802;2023-03-14T08:47:44;99394.38;;;4.55;100.00
52535;BME280;38443;53.164;5.802;2023-03-14T08:50:10;99390.19;;;4.47;100.00
52535;BME280;38443;53.164;5.802;2023-03-14T08:52:36;99406.69;;;4.56;100.00
52535;BME280;38443;53.164;5.802;2023-03-14T08:55:03;99420.22;;;4.47;100.00
52535;BME280;38443;53.164;5.802;2023-03-14T08:57:28;99437.31;;;4.35;100.00
52535;BME280;38443;53.164;5.802;2023-03-14T08:59:54;99444.00;;;4.14;100.00
52535;BME280;38443;53.164;5.802;2023-03-14T09:02:20;99463.50;;;4.12;100.00
52535;BME280;38443;53.164;5.802;2023-03-14T09:04:45;99472.34;;;4.11;100.00
52535;BME280;38443;53.164;5.802;2023-03-14T09:07:11;99484.56;;;4.16;100.00
52535;BME280;38443;53.164;5.802;2023-03-14T09:09:36;99477.56;;;4.14;100.00
52535;BME280;38443;53.164;5.802;2023-03-14T09:12:02;99489.63;;;4.27;100.00
52535;BME280;38443;53.164;5.802;2023-03-14T09:14:27;99508.97;;;4.29;100.00
52535;BME280;38443;53.164;5.802;2023-03-14T09:16:52;99523.81;;;4.35;100.00
52535;BME280;38443;53.164;5.802;2023-03-14T09:19:18;99516.84;;;4.32;100.00
52535;BME280;38443;53.164;5.802;2023-03-14T09:21:43;99552.00;;;4.39;100.00
52535;BME280;38443;53.164;5.802;2023-03-14T09:24:08;99545.00;;;4.35;100.00
52535;BME280;38443;53.164;5.802;2023-03-14T09:26:33;99548.56;;;4.35;100.00
52535;BME280;38443;53.164;5.802;2023-03-14T09:28:59;99552.91;;;4.38;100.00
52535;BME280;38443;53.164;5.802;2023-03-14T09:31:24;99565.94;;;4.47;100.00
52535;BME280;38443;53.164;5.802;2023-03-14T09:33:49;99580.56;;;4.62;100.00
52535;BME280;38443;53.164;5.802;2023-03-14T09:36:15;99590.72;;;4.79;100.00
52535;BME280;38443;53.164;5.802;2023-03-14T09:38:40;99604.78;;;4.81;100.00
52535;BME280;38443;53.164;5.802;2023-03-14T09:41:18;99608.44;;;4.77;100.00
52535;BME280;38443;53.164;5.802;2023-03-14T09:43:47;99621.69;;;4.77;100.00
52535;BME280;38443;53.164;5.802;2023-03-14T09:46:16;99633.94;;;4.83;100.00
52535;BME280;38443;53.164;5.802;2023-03-14T09:48:41;99657.03;;;4.77;100.00
52535;BME280;38443;53.164;5.802;2023-03-14T09:51:17;99645.66;;;4.72;100.00
52535;BME280;38443;53.164;5.802;2023-03-14T09:53:45;99672.28;;;4.69;100.00
52535;BME280;38443;53.164;5.802;2023-03-14T09:56:15;99658.94;;;4.71;100.00
52535;BME280;38443;53.164;5.802;2023-03-14T09:58:42;99661.56;;;4.72;100.00
52535;BME280;38443;53.164;5.802;2023-03-14T10:01:11;99677.25;;;4.83;100.00
52535;BME280;38443;53.164;5.802;2023-03-14T10:03:40;99701.31;;;5.10;100.00
52535;BME280;38443;53.164;5.802;2023-03-14T10:06:14;99692.72;;;5.34;100.00
52535;BME280;38443;53.164;5.802;2023-03-14T10:08:41;99698.63;;;5.11;100.00
52535;BME280;38443;53.164;5.802;2023-03-14T10:11:13;99716.47;;;5.03;100.00
52535;BME280;38443;53.164;5.802;2023-03-14T10:16:35;99730.16;;;5.22;100.00
52535;BME280;38443;53.164;5.802;2023-03-14T10:19:09;99729.97;;;5.30;100.00
52535;BME280;38443;53.164;5.802;2023-03-14T10:21:42;99747.81;;;5.23;100.00
52535;BME280;38443;53.164;5.802;2023-03-14T10:26:35;99763.44;;;4.99;100.00
52535;BME280;38443;53.164;5.802;2023-03-14T10:29:01;99769.25;;;5.15;100.00
52535;BME280;38443;53.164;5.802;2023-03-14T10:31:27;99770.56;;;5.33;100.00
52535;BME280;38443;53.164;5.802;2023-03-14T10:34:00;99790.31;;;5.22;100.00
52535;BME280;38443;53.164;5.802;2023-03-14T10:36:30;99781.41;;;5.24;100.00
52535;BME280;38443;53.164;5.802;2023-03-14T10:39:15;99805.50;;;5.15;100.00
52535;BME280;38443;53.164;5.802;2023-03-14T10:41:48;99802.94;;;5.12;100.00
52535;BME280;38443;53.164;5.802;2023-03-14T10:44:16;99808.47;;;5.01;100.00
52535;BME280;38443;53.164;5.802;2023-03-14T10:46:45;99817.63;;;4.88;100.00
52535;BME280;38443;53.164;5.802;2023-03-14T10:49:15;99827.69;;;4.72;100.00
52535;BME280;38443;53.164;5.802;2023-03-14T10:51:48;99857.75;;;4.71;100.00
52535;BME280;38443;53.164;5.802;2023-03-14T10:54:14;99847.66;;;4.88;100.00
52535;BME280;38443;53.164;5.802;2023-03-14T10:56:43;99856.34;;;4.95;100.00
52535;BME280;38443;53.164;5.802;2023-03-14T10:59:15;99878.81;;;4.77;100.00
52535;BME280;38443;53.164;5.802;2023-03-14T11:01:58;99887.50;;;4.85;100.00
52535;BME280;38443;53.164;5.802;2023-03-14T11:23:32;99934.03;;;5.00;100.00
52535;BME280;38443;53.164;5.802;2023-03-14T11:26:34;99947.13;;;5.08;100.00
52535;BME280;38443;53.164;5.802;2023-03-14T11:29:12;99950.50;;;5.16;100.00
52535;BME280;38443;53.164;5.802;2023-03-14T11:31:40;99961.66;;;5.30;100.00
52535;BME280;38443;53.164;5.802;2023-03-14T11:34:39;99959.44;;;5.51;100.00
52535;BME280;38443;53.164;5.802;2023-03-14T11:37:16;99975.50;;;5.45;100.00
52535;BME280;38443;53.164;5.802;2023-03-14T11:39:50;99965.81;;;5.44;100.00
52535;BME280;38443;53.164;5.802;2023-03-14T11:42:19;99980.66;;;5.51;100.00
52535;BME280;38443;53.164;5.802;2023-03-14T11:44:49;99992.22;;;5.48;100.00
52535;BME280;38443;53.164;5.802;2023-03-14T11:47:29;100007.56;;;5.35;100.00
52535;BME280;38443;53.164;5.802;2023-03-14T11:50:09;100004.09;;;5.32;100.00
52535;BME280;38443;53.164;5.802;2023-03-14T11:52:44;100004.13;;;5.30;100.00
52535;BME280;38443;53.164;5.802;2023-03-14T11:55:24;100028.97;;;5.26;100.00
52535;BME280;38443;53.164;5.802;2023-03-14T11:57:51;100041.41;;;5.24;100.00
52535;BME280;38443;53.164;5.802;2023-03-14T12:00:20;100046.69;;;5.26;100.00
52535;BME280;38443;53.164;5.802;2023-03-14T12:03:05;100038.47;;;5.38;100.00
52535;BME280;38443;53.164;5.802;2023-03-14T12:08:33;100056.44;;;5.66;100.00
52535;BME280;38443;53.164;5.802;2023-03-14T12:11:11;100071.56;;;5.62;100.00
52535;BME280;38443;53.164;5.802;2023-03-14T12:13:39;100068.91;;;5.62;100.00
52535;BME280;38443;53.164;5.802;2023-03-14T12:18:52;100077.53;;;5.31;100.00
52535;BME280;38443;53.164;5.802;2023-03-14T12:21:18;100099.59;;;5.33;100.00
52535;BME280;38443;53.164;5.802;2023-03-14T12:23:50;100090.16;;;5.17;79.87
52535;BME280;38443;53.164;5.802;2023-03-14T12:26:20;100099.09;;;5.13;82.32
52535;BME280;38443;53.164;5.802;2023-03-14T12:29:09;100113.03;;;5.23;94.73
52535;BME280;38443;53.164;5.802;2023-03-14T12:31:47;100113.88;;;5.25;95.37
52535;BME280;38443;53.164;5.802;2023-03-14T12:39:25;100132.94;;;5.45;100.00
52535;BME280;38443;53.164;5.802;2023-03-14T12:42:10;100129.44;;;5.45;100.00
52535;BME280;38443;53.164;5.802;2023-03-14T12:49:44;100142.78;;;5.40;100.00
52535;BME280;38443;53.164;5.802;2023-03-14T12:52:35;100137.72;;;5.29;84.43
52535;BME280;38443;53.164;5.802;2023-03-14T12:55:24;100148.47;;;5.20;93.51
52535;BME280;38443;53.164;5.802;2023-03-14T13:00:33;100168.97;;;5.12;98.74
52535;BME280;38443;53.164;5.802;2023-03-14T13:05:51;100173.50;;;5.05;100.00
52535;BME280;38443;53.164;5.802;2023-03-14T13:08:39;100187.56;;;5.10;100.00
52535;BME280;38443;53.164;5.802;2023-03-14T13:11:09;100184.06;;;5.08;92.65
52535;BME280;38443;53.164;5.802;2023-03-14T13:13:37;100190.28;;;5.07;100.00
52535;BME280;38443;53.164;5.802;2023-03-14T13:16:05;100202.38;;;5.24;100.00
52535;BME280;38443;53.164;5.802;2023-03-14T13:18:38;100211.16;;;5.27;96.73
52535;BME280;38443;53.164;5.802;2023-03-14T13:21:17;100209.66;;;5.11;91.65
52535;BME280;38443;53.164;5.802;2023-03-14T13:24:01;100232.97;;;4.92;100.00
52535;BME280;38443;53.164;5.802;2023-03-14T13:26:41;100218.75;;;4.94;97.38
52535;BME280;38443;53.164;5.802;2023-03-14T13:29:22;100231.91;;;5.00;98.38
52535;BME280;38443;53.164;5.802;2023-03-14T13:31:51;100235.63;;;4.90;100.00
52535;BME280;38443;53.164;5.802;2023-03-14T13:34:17;100242.63;;;4.96;100.00
52535;BME280;38443;53.164;5.802;2023-03-14T13:36:43;100237.06;;;5.11;100.00
52535;BME280;38443;53.164;5.802;2023-03-14T13:39:18;100244.88;;;5.19;89.70
52535;BME280;38443;53.164;5.802;2023-03-14T13:41:45;100244.47;;;5.44;100.00
52535;BME280;38443;53.164;5.802;2023-03-14T13:44:17;100249.53;;;5.56;100.00
52535;BME280;38443;53.164;5.802;2023-03-14T13:46:46;100262.09;;;5.46;92.19
52535;BME280;38443;53.164;5.802;2023-03-14T13:49:22;100257.13;;;5.28;93.12
52535;BME280;38443;53.164;5.802;2023-03-14T13:51:48;100275.00;;;5.15;100.00
52535;BME280;38443;53.164;5.802;2023-03-14T13:54:17;100271.66;;;5.05;84.23
52535;BME280;38443;53.164;5.802;2023-03-14T13:56:43;100279.69;;;4.99;90.68